sensor_id;sensor_type;location;lat;lon;timestamp;temperature;humidity
11748;DHT22;5931;48.832;9.072;2023-04-22T00:02:10;9.90;99.90
11748;DHT22;5931;48.832;9.072;2023-04-22T00:04:37;9.90;99.90
11748;DHT22;5931;48.832;9.072;2023-04-22T00:07:03;9.90;99.90
11748;DHT22;5931;48.832;9.072;2023-04-22T00:09:28;9.90;99.90
11748;DHT22;5931;48.832;9.072;2023-04-22T00:11:54;9.90;99.90
11748;DHT22;5931;48.832;9.072;2023-04-22T00:14:20;9.80;99.90
11748;DHT22;5931;48.832;9.072;2023-04-22T00:16:46;9.70;99.90
11748;DHT22;5931;48.832;9.072;2023-04-22T00:19:11;9.60;99.90
11748;DHT22;5931;48.832;9.072;2023-04-22T00:21:37;9.60;99.90
11748;DHT22;5931;48.832;9.072;2023-04-22T00:24:03;9.60;99.90
11748;DHT22;5931;48.832;9.072;2023-04-22T00:26:28;9.50;99.90
11748;DHT22;5931;48.832;9.072;2023-04-22T00:28:54;9.50;99.90
11748;DHT22;5931;48.832;9.072;2023-04-22T00:31:20;9.50;99.90
11748;DHT22;5931;48.832;9.072;2023-04-22T00:33:45;9.60;99.90
11748;DHT22;5931;48.832;9.072;2023-04-22T00:36:11;9.60;99.90
11748;DHT22;5931;48.832;9.072;2023-04-22T00:38:37;9.50;99.90
11748;DHT22;5931;48.832;9.072;2023-04-22T00:41:03;9.50;99.90
11748;DHT22;5931;48.832;9.072;2023-04-22T00:43:29;9.50;99.90
11748;DHT22;5931;48.832;9.072;2023-04-22T00:45:56;9.40;99.90
11748;DHT22;5931;48.832;9.072;2023-04-22T00:48:23;9.40;99.90
11748;DHT22;5931;48.832;9.072;2023-04-22T00:50:49;9.30;99.90
11748;DHT22;5931;48.832;9.072;2023-04-22T00:53:14;9.30;99.90
11748;DHT22;5931;48.832;9.072;2023-04-22T00:55:40;9.30;99.90
11748;DHT22;5931;48.832;9.072;2023-04-22T00:58:07;9.30;99.90
11748;DHT22;5931;48.832;9.072;2023-04-22T01:00:34;9.30;99.90
11748;DHT22;5931;48.832;9.072;2023-04-22T01:03:01;9.30;99.90
11748;DHT22;5931;48.832;9.072;2023-04-22T01:05:30;9.30;99.90
11748;DHT22;5931;48.832;9.072;2023-04-22T01:07:55;9.30;99.90
11748;DHT22;5931;48.832;9.072;2023-04-22T01:10:21;9.40;99.90
11748;DHT22;5931;48.832;9.072;2023-04-22T01:12:47;9.40;99.90
11748;DHT22;5931;48.832;9.072;2023-04-22T01:15:13;9.40;99.90
11748;DHT22;5931;48.832;9.072;2023-04-22T01:17:39;9.40;99.90
11748;DHT22;5931;48.832;9.072;2023-04-22T01:20:05;9.40;99.90
11748;DHT22;5931;48.832;9.072;2023-04-22T01:22:35;9.40;99.90
11748;DHT22;5931;48.832;9.072;2023-04-22T01:25:05;9.40;99.90
11748;DHT22;5931;48.832;9.072;2023-04-22T01:27:32;9.40;99.90
11748;DHT22;5931;48.832;9.072;2023-04-22T01:29:59;9.30;99.90
11748;DHT22;5931;48.832;9.072;2023-04-22T01:32:25;9.30;99.90
11748;DHT22;5931;48.832;9.072;2023-04-22T01:34:51;9.30;99.90
11748;DHT22;5931;48.832;9.072;2023-04-22T01:37:17;9.30;99.90
11748;DHT22;5931;48.832;9.072;2023-04-22T01:39:44;9.30;99.90
11748;DHT22;5931;48.832;9.072;2023-04-22T01:42:10;9.40;99.90
11748;DHT22;5931;48.832;9.072;2023-04-22T01:44:37;9.40;99.90
11748;DHT22;5931;48.832;9.072;2023-04-22T01:47:03;9.30;99.90
11748;DHT22;5931;48.832;9.072;2023-04-22T01:49:29;9.40;99.90
11748;DHT22;5931;48.832;9.072;2023-04-22T01:51:56;9.30;99.90
11748;DHT22;5931;48.832;9.072;2023-04-22T01:54:22;9.30;99.90
11748;DHT22;5931;48.832;9.072;2023-04-22T01:56:51;9.20;99.90
11748;DHT22;5931;48.832;9.072;2023-04-22T01:59:18;9.20;99.90
11748;DHT22;5931;48.832;9.072;2023-04-22T02:01:44;9.20;99.90
11748;DHT22;5931;48.832;9.072;2023-04-22T02:04:09;9.20;99.90
11748;DHT22;5931;48.832;9.072;2023-04-22T02:06:35;9.10;99.90
11748;DHT22;5931;48.832;9.072;2023-04-22T02:09:03;9.10;99.90
11748;DHT22;5931;48.832;9.072;2023-04-22T02:11:29;9.00;99.90
11748;DHT22;5931;48.832;9.072;2023-04-22T02:13:55;9.00;99.90
11748;DHT22;5931;48.832;9.072;2023-04-22T02:16:21;9.00;99.90
11748;DHT22;5931;48.832;9.072;2023-04-22T02:18:47;8.90;99.90
11748;DHT22;5931;48.832;9.072;2023-04-22T02:21:13;8.90;99.90
11748;DHT22;5931;48.832;9.072;2023-04-22T02:23:39;8.90;99.90
11748;DHT22;5931;48.832;9.072;2023-04-22T02:26:06;8.80;99.90
11748;DHT22;5931;48.832;9.072;2023-04-22T02:28:32;8.80;99.90
11748;DHT22;5931;48.832;9.072;2023-04-22T02:30:58;8.70;99.90
11748;DHT22;5931;48.832;9.072;2023-04-22T02:33:24;8.70;99.90
11748;DHT22;5931;48.832;9.072;2023-04-22T02:35:50;8.70;99.90
11748;DHT22;5931;48.832;9.072;2023-04-22T02:38:17;8.70;99.90
11748;DHT22;5931;48.832;9.072;2023-04-22T02:40:43;8.70;99.90
11748;DHT22;5931;48.832;9.072;2023-04-22T02:43:10;8.90;99.90
11748;DHT22;5931;48.832;9.072;2023-04-22T02:45:35;8.80;99.90
11748;DHT22;5931;48.832;9.072;2023-04-22T02:48:01;8.80;99.90
11748;DHT22;5931;48.832;9.072;2023-04-22T02:50:27;8.80;99.90
11748;DHT22;5931;48.832;9.072;2023-04-22T02:52:52;8.80;99.90
11748;DHT22;5931;48.832;9.072;2023-04-22T02:55:18;8.80;99.90
11748;DHT22;5931;48.832;9.072;2023-04-22T02:57:44;8.80;99.90
11748;DHT22;5931;48.832;9.072;2023-04-22T03:00:10;8.70;99.90
11748;DHT22;5931;48.832;9.072;2023-04-22T03:02:36;8.70;99.90
11748;DHT22;5931;48.832;9.072;2023-04-22T03:05:13;8.60;99.90
11748;DHT22;5931;48.832;9.072;2023-04-22T03:07:39;8.60;99.90
11748;DHT22;5931;48.832;9.072;2023-04-22T03:10:05;8.50;99.90
11748;DHT22;5931;48.832;9.072;2023-04-22T03:12:32;8.40;99.90
11748;DHT22;5931;48.832;9.072;2023-04-22T03:14:58;8.40;99.90
11748;DHT22;5931;48.832;9.072;2023-04-22T03:17:29;8.40;99.90
11748;DHT22;5931;48.832;9.072;2023-04-22T03:19:55;8.40;99.90
11748;DHT22;5931;48.832;9.072;2023-04-22T03:22:22;8.50;99.90
11748;DHT22;5931;48.832;9.072;2023-04-22T03:24:49;8.60;99.90
11748;DHT22;5931;48.832;9.072;2023-04-22T03:27:15;8.50;99.90
11748;DHT22;5931;48.832;9.072;2023-04-22T03:29:40;8.50;99.90
11748;DHT22;5931;48.832;9.072;2023-04-22T03:32:06;8.30;99.90
11748;DHT22;5931;48.832;9.072;2023-04-22T03:34:33;8.20;99.90
11748;DHT22;5931;48.832;9.072;2023-04-22T03:36:59;8.20;99.90
11748;DHT22;5931;48.832;9.072;2023-04-22T03:39:25;8.20;99.90
11748;DHT22;5931;48.832;9.072;2023-04-22T03:41:50;8.10;99.90
11748;DHT22;5931;48.832;9.072;2023-04-22T03:44:16;8.00;99.90
11748;DHT22;5931;48.832;9.072;2023-04-22T03:46:43;7.90;99.90
11748;DHT22;5931;48.832;9.072;2023-04-22T03:49:17;7.90;99.90
11748;DHT22;5931;48.832;9.072;2023-04-22T03:51:43;7.80;99.90
11748;DHT22;5931;48.832;9.072;2023-04-22T03:54:13;7.70;99.90
11748;DHT22;5931;48.832;9.072;2023-04-22T03:56:45;7.60;99.90
11748;DHT22;5931;48.832;9.072;2023-04-22T03:59:11;7.60;99.90
11748;DHT22;5931;48.832;9.072;2023-04-22T04:01:37;7.50;99.90
11748;DHT22;5931;48.832;9.072;2023-04-22T04:04:06;7.60;99.90
11748;DHT22;5931;48.832;9.072;2023-04-22T04:06:44;7.50;99.90
11748;DHT22;5931;48.832;9.072;2023-04-22T04:09:10;7.50;99.90
11748;DHT22;5931;48.832;9.072;2023-04-22T04:11:36;7.40;99.90
11748;DHT22;5931;48.832;9.072;2023-04-22T04:14:02;7.40;99.90
11748;DHT22;5931;48.832;9.072;2023-04-22T04:16:35;7.40;99.90
11748;DHT22;5931;48.832;9.072;2023-04-22T04:19:08;7.40;99.90
11748;DHT22;5931;48.832;9.072;2023-04-22T04:21:36;7.40;99.90
11748;DHT22;5931;48.832;9.072;2023-04-22T04:24:06;7.40;99.90
11748;DHT22;5931;48.832;9.072;2023-04-22T04:26:35;7.40;99.90
11748;DHT22;5931;48.832;9.072;2023-04-22T04:29:08;7.40;99.90
11748;DHT22;5931;48.832;9.072;2023-04-22T04:31:36;7.40;99.90
11748;DHT22;5931;48.832;9.072;2023-04-22T04:34:02;7.60;99.90
11748;DHT22;5931;48.832;9.072;2023-04-22T04:36:29;7.60;99.90
11748;DHT22;5931;48.832;9.072;2023-04-22T04:39:00;7.50;99.90
11748;DHT22;5931;48.832;9.072;2023-04-22T04:41:27;7.40;99.90
11748;DHT22;5931;48.832;9.072;2023-04-22T04:43:54;7.40;99.90
11748;DHT22;5931;48.832;9.072;2023-04-22T04:46:28;7.40;99.90
11748;DHT22;5931;48.832;9.072;2023-04-22T04:48:57;7.40;99.90
11748;DHT22;5931;48.832;9.072;2023-04-22T04:51:25;7.40;99.90
11748;DHT22;5931;48.832;9.072;2023-04-22T04:53:55;7.40;99.90
11748;DHT22;5931;48.832;9.072;2023-04-22T04:56:21;7.40;99.90
11748;DHT22;5931;48.832;9.072;2023-04-22T04:58:47;7.50;99.90
11748;DHT22;5931;48.832;9.072;2023-04-22T05:01:18;7.60;99.90
11748;DHT22;5931;48.832;9.072;2023-04-22T05:03:45;7.70;99.90
11748;DHT22;5931;48.832;9.072;2023-04-22T05:06:13;7.70;99.90
11748;DHT22;5931;48.832;9.072;2023-04-22T05:08:44;7.70;99.90
11748;DHT22;5931;48.832;9.072;2023-04-22T05:11:10;7.70;99.90
11748;DHT22;5931;48.832;9.072;2023-04-22T05:13:36;7.80;99.90
11748;DHT22;5931;48.832;9.072;2023-04-22T05:16:03;7.70;99.90
11748;DHT22;5931;48.832;9.072;2023-04-22T05:18:29;7.80;99.90
11748;DHT22;5931;48.832;9.072;2023-04-22T05:20:58;7.90;99.90
11748;DHT22;5931;48.832;9.072;2023-04-22T05:23:25;7.90;99.90
11748;DHT22;5931;48.832;9.072;2023-04-22T05:25:53;8.00;99.90
11748;DHT22;5931;48.832;9.072;2023-04-22T05:28:19;8.00;99.90
11748;DHT22;5931;48.832;9.072;2023-04-22T05:30:50;8.00;99.90
11748;DHT22;5931;48.832;9.072;2023-04-22T05:33:15;8.00;99.90
11748;DHT22;5931;48.832;9.072;2023-04-22T05:35:41;8.00;99.90
11748;DHT22;5931;48.832;9.072;2023-04-22T05:38:08;8.10;99.90
11748;DHT22;5931;48.832;9.072;2023-04-22T05:40:36;8.00;99.90
11748;DHT22;5931;48.832;9.072;2023-04-22T05:43:03;8.10;99.90
11748;DHT22;5931;48.832;9.072;2023-04-22T05:45:29;8.10;99.90
11748;DHT22;5931;48.832;9.072;2023-04-22T05:47:55;8.10;99.90
11748;DHT22;5931;48.832;9.072;2023-04-22T05:50:22;8.20;99.90
11748;DHT22;5931;48.832;9.072;2023-04-22T05:52:54;8.30;99.90
11748;DHT22;5931;48.832;9.072;2023-04-22T05:55:22;8.50;99.90
11748;DHT22;5931;48.832;9.072;2023-04-22T05:57:48;8.70;99.90
11748;DHT22;5931;48.832;9.072;2023-04-22T06:00:38;8.90;99.90
11748;DHT22;5931;48.832;9.072;2023-04-22T06:03:17;9.10;99.90
11748;DHT22;5931;48.832;9.072;2023-04-22T06:05:43;9.40;99.90
11748;DHT22;5931;48.832;9.072;2023-04-22T06:08:09;9.60;99.90
11748;DHT22;5931;48.832;9.072;2023-04-22T06:10:34;9.90;99.90
11748;DHT22;5931;48.832;9.072;2023-04-22T06:13:00;10.10;99.90
11748;DHT22;5931;48.832;9.072;2023-04-22T06:15:26;10.40;99.90
11748;DHT22;5931;48.832;9.072;2023-04-22T06:17:52;10.60;99.90
11748;DHT22;5931;48.832;9.072;2023-04-22T06:20:17;10.90;99.90
11748;DHT22;5931;48.832;9.072;2023-04-22T06:22:43;11.20;99.90
11748;DHT22;5931;48.832;9.072;2023-04-22T06:25:09;11.40;99.90
11748;DHT22;5931;48.832;9.072;2023-04-22T06:27:34;11.60;99.90
11748;DHT22;5931;48.832;9.072;2023-04-22T06:30:03;11.80;99.90
11748;DHT22;5931;48.832;9.072;2023-04-22T06:32:31;12.00;99.90
11748;DHT22;5931;48.832;9.072;2023-04-22T06:34:56;12.20;99.90
11748;DHT22;5931;48.832;9.072;2023-04-22T06:37:22;12.30;99.90
11748;DHT22;5931;48.832;9.072;2023-04-22T06:39:48;12.40;99.90
11748;DHT22;5931;48.832;9.072;2023-04-22T06:42:46;12.50;99.90
11748;DHT22;5931;48.832;9.072;2023-04-22T06:45:32;12.60;99.90
11748;DHT22;5931;48.832;9.072;2023-04-22T06:48:16;12.70;99.90
11748;DHT22;5931;48.832;9.072;2023-04-22T06:51:05;12.80;99.90
11748;DHT22;5931;48.832;9.072;2023-04-22T06:53:30;12.90;99.90
11748;DHT22;5931;48.832;9.072;2023-04-22T06:55:56;13.00;99.90
11748;DHT22;5931;48.832;9.072;2023-04-22T06:58:22;13.10;99.90
11748;DHT22;5931;48.832;9.072;2023-04-22T07:00:48;13.20;99.90
11748;DHT22;5931;48.832;9.072;2023-04-22T07:03:13;13.30;99.90
11748;DHT22;5931;48.832;9.072;2023-04-22T07:05:40;13.40;99.90
11748;DHT22;5931;48.832;9.072;2023-04-22T07:08:07;13.60;99.90
11748;DHT22;5931;48.832;9.072;2023-04-22T07:10:33;13.70;99.90
11748;DHT22;5931;48.832;9.072;2023-04-22T07:13:18;13.80;99.90
11748;DHT22;5931;48.832;9.072;2023-04-22T07:15:44;14.00;99.90
11748;DHT22;5931;48.832;9.072;2023-04-22T07:18:10;14.10;99.90
11748;DHT22;5931;48.832;9.072;2023-04-22T07:20:36;14.30;99.90
11748;DHT22;5931;48.832;9.072;2023-04-22T07:23:02;14.50;99.90
11748;DHT22;5931;48.832;9.072;2023-04-22T07:25:27;14.70;99.90
11748;DHT22;5931;48.832;9.072;2023-04-22T07:27:53;14.90;99.90
11748;DHT22;5931;48.832;9.072;2023-04-22T07:30:19;15.10;99.90
11748;DHT22;5931;48.832;9.072;2023-04-22T07:32:45;15.30;99.90
11748;DHT22;5931;48.832;9.072;2023-04-22T07:35:10;15.60;99.90
11748;DHT22;5931;48.832;9.072;2023-04-22T07:37:36;15.70;99.90
11748;DHT22;5931;48.832;9.072;2023-04-22T07:40:02;16.00;99.90
11748;DHT22;5931;48.832;9.072;2023-04-22T07:42:28;16.20;99.90
11748;DHT22;5931;48.832;9.072;2023-04-22T07:44:53;16.40;99.90
11748;DHT22;5931;48.832;9.072;2023-04-22T07:47:19;16.50;99.90
11748;DHT22;5931;48.832;9.072;2023-04-22T07:49:45;16.70;99.90
11748;DHT22;5931;48.832;9.072;2023-04-22T07:52:10;16.90;99.90
11748;DHT22;5931;48.832;9.072;2023-04-22T07:54:36;17.10;99.90
11748;DHT22;5931;48.832;9.072;2023-04-22T07:57:01;17.20;99.90
11748;DHT22;5931;48.832;9.072;2023-04-22T07:59:27;17.40;99.90
11748;DHT22;5931;48.832;9.072;2023-04-22T08:01:53;17.40;99.90
11748;DHT22;5931;48.832;9.072;2023-04-22T08:04:21;17.60;99.90
11748;DHT22;5931;48.832;9.072;2023-04-22T08:06:47;17.80;99.90
11748;DHT22;5931;48.832;9.072;2023-04-22T08:09:12;17.80;99.90
11748;DHT22;5931;48.832;9.072;2023-04-22T08:11:38;17.80;99.90
11748;DHT22;5931;48.832;9.072;2023-04-22T08:14:04;17.80;99.90
11748;DHT22;5931;48.832;9.072;2023-04-22T08:16:29;17.50;99.90
11748;DHT22;5931;48.832;9.072;2023-04-22T08:18:55;17.30;99.90
11748;DHT22;5931;48.832;9.072;2023-04-22T08:21:22;17.10;99.90
11748;DHT22;5931;48.832;9.072;2023-04-22T08:23:47;17.00;99.90
11748;DHT22;5931;48.832;9.072;2023-04-22T08:26:13;16.80;99.90
11748;DHT22;5931;48.832;9.072;2023-04-22T08:28:40;17.00;99.90
11748;DHT22;5931;48.832;9.072;2023-04-22T08:31:06;17.10;99.90
11748;DHT22;5931;48.832;9.072;2023-04-22T08:33:33;17.00;99.90
11748;DHT22;5931;48.832;9.072;2023-04-22T08:35:59;17.00;99.90
11748;DHT22;5931;48.832;9.072;2023-04-22T08:38:25;17.20;99.90
11748;DHT22;5931;48.832;9.072;2023-04-22T08:40:56;17.30;99.90
11748;DHT22;5931;48.832;9.072;2023-04-22T08:43:24;17.40;99.90
11748;DHT22;5931;48.832;9.072;2023-04-22T08:45:51;17.60;99.90
11748;DHT22;5931;48.832;9.072;2023-04-22T08:48:18;17.70;99.90
11748;DHT22;5931;48.832;9.072;2023-04-22T08:50:46;17.80;99.90
11748;DHT22;5931;48.832;9.072;2023-04-22T08:53:13;17.90;99.90
11748;DHT22;5931;48.832;9.072;2023-04-22T08:55:40;17.90;99.90
11748;DHT22;5931;48.832;9.072;2023-04-22T08:58:09;18.20;99.90
11748;DHT22;5931;48.832;9.072;2023-04-22T09:00:37;18.50;99.90
11748;DHT22;5931;48.832;9.072;2023-04-22T09:03:05;18.80;99.90
11748;DHT22;5931;48.832;9.072;2023-04-22T09:05:35;19.00;99.90
11748;DHT22;5931;48.832;9.072;2023-04-22T09:08:02;19.40;99.90
11748;DHT22;5931;48.832;9.072;2023-04-22T09:10:29;19.70;99.90
11748;DHT22;5931;48.832;9.072;2023-04-22T09:12:56;19.90;99.90
11748;DHT22;5931;48.832;9.072;2023-04-22T09:15:23;20.30;99.90
11748;DHT22;5931;48.832;9.072;2023-04-22T09:17:52;20.40;99.90
11748;DHT22;5931;48.832;9.072;2023-04-22T09:20:18;20.50;99.90
11748;DHT22;5931;48.832;9.072;2023-04-22T09:22:50;20.80;99.90
11748;DHT22;5931;48.832;9.072;2023-04-22T09:25:24;20.80;99.90
11748;DHT22;5931;48.832;9.072;2023-04-22T09:27:55;20.80;99.90
11748;DHT22;5931;48.832;9.072;2023-04-22T09:30:42;20.80;99.90
11748;DHT22;5931;48.832;9.072;2023-04-22T09:33:09;21.00;99.90
11748;DHT22;5931;48.832;9.072;2023-04-22T09:35:36;21.00;99.90
11748;DHT22;5931;48.832;9.072;2023-04-22T09:38:05;20.90;99.90
11748;DHT22;5931;48.832;9.072;2023-04-22T09:40:32;20.70;99.90
11748;DHT22;5931;48.832;9.072;2023-04-22T09:43:02;20.40;99.90
11748;DHT22;5931;48.832;9.072;2023-04-22T09:45:30;20.60;99.90
11748;DHT22;5931;48.832;9.072;2023-04-22T09:47:58;20.70;99.90
11748;DHT22;5931;48.832;9.072;2023-04-22T09:50:25;21.00;99.90
11748;DHT22;5931;48.832;9.072;2023-04-22T09:52:54;21.30;99.90
11748;DHT22;5931;48.832;9.072;2023-04-22T09:55:22;21.50;99.90
11748;DHT22;5931;48.832;9.072;2023-04-22T09:57:51;21.60;99.90
11748;DHT22;5931;48.832;9.072;2023-04-22T10:00:17;21.70;99.90
11748;DHT22;5931;48.832;9.072;2023-04-22T10:02:43;21.50;99.90
11748;DHT22;5931;48.832;9.072;2023-04-22T10:05:09;21.50;99.90
11748;DHT22;5931;48.832;9.072;2023-04-22T10:07:38;21.50;99.90
11748;DHT22;5931;48.832;9.072;2023-04-22T10:10:06;21.50;99.90
11748;DHT22;5931;48.832;9.072;2023-04-22T10:12:36;21.60;99.90
11748;DHT22;5931;48.832;9.072;2023-04-22T10:15:06;21.60;99.90
11748;DHT22;5931;48.832;9.072;2023-04-22T10:17:34;21.60;99.90
11748;DHT22;5931;48.832;9.072;2023-04-22T10:20:02;21.80;99.90
11748;DHT22;5931;48.832;9.072;2023-04-22T10:22:32;21.90;99.90
11748;DHT22;5931;48.832;9.072;2023-04-22T10:32:26;22.40;99.90
11748;DHT22;5931;48.832;9.072;2023-04-22T10:35:07;22.50;99.90
11748;DHT22;5931;48.832;9.072;2023-04-22T10:37:33;22.40;98.10
11748;DHT22;5931;48.832;9.072;2023-04-22T10:42:38;22.50;96.40
11748;DHT22;5931;48.832;9.072;2023-04-22T10:45:04;22.50;94.70
11748;DHT22;5931;48.832;9.072;2023-04-22T10:47:37;22.70;95.30
11748;DHT22;5931;48.832;9.072;2023-04-22T10:50:16;22.90;95.90
11748;DHT22;5931;48.832;9.072;2023-04-22T10:52:44;23.00;94.00
11748;DHT22;5931;48.832;9.072;2023-04-22T10:55:10;23.10;93.90
11748;DHT22;5931;48.832;9.072;2023-04-22T10:57:43;23.20;93.90
11748;DHT22;5931;48.832;9.072;2023-04-22T11:02:50;22.90;93.60
11748;DHT22;5931;48.832;9.072;2023-04-22T11:05:23;23.00;94.20
11748;DHT22;5931;48.832;9.072;2023-04-22T11:07:52;23.10;93.60
11748;DHT22;5931;48.832;9.072;2023-04-22T11:13:01;23.00;93.80
11748;DHT22;5931;48.832;9.072;2023-04-22T11:15:29;23.00;93.10
11748;DHT22;5931;48.832;9.072;2023-04-22T11:17:56;23.20;93.00
11748;DHT22;5931;48.832;9.072;2023-04-22T11:20:22;23.30;92.80
11748;DHT22;5931;48.832;9.072;2023-04-22T11:22:51;23.60;94.40
11748;DHT22;5931;48.832;9.072;2023-04-22T11:25:18;24.00;92.40
11748;DHT22;5931;48.832;9.072;2023-04-22T11:27:44;24.00;93.10
11748;DHT22;5931;48.832;9.072;2023-04-22T11:30:12;24.30;92.80
11748;DHT22;5931;48.832;9.072;2023-04-22T11:32:47;24.40;92.50
11748;DHT22;5931;48.832;9.072;2023-04-22T11:35:20;24.80;92.80
11748;DHT22;5931;48.832;9.072;2023-04-22T11:37:53;25.00;92.80
11748;DHT22;5931;48.832;9.072;2023-04-22T11:40:29;25.30;91.10
11748;DHT22;5931;48.832;9.072;2023-04-22T11:42:57;25.60;92.80
11748;DHT22;5931;48.832;9.072;2023-04-22T11:45:24;25.70;91.60
11748;DHT22;5931;48.832;9.072;2023-04-22T11:47:51;25.90;90.50
11748;DHT22;5931;48.832;9.072;2023-04-22T11:50:21;25.70;91.30
11748;DHT22;5931;48.832;9.072;2023-04-22T11:53:00;25.50;89.50
11748;DHT22;5931;48.832;9.072;2023-04-22T11:55:31;25.40;90.90
11748;DHT22;5931;48.832;9.072;2023-04-22T11:58:10;25.40;91.30
11748;DHT22;5931;48.832;9.072;2023-04-22T12:03:17;25.30;90.90
11748;DHT22;5931;48.832;9.072;2023-04-22T12:05:58;25.60;90.10
11748;DHT22;5931;48.832;9.072;2023-04-22T12:08:30;25.60;90.40
11748;DHT22;5931;48.832;9.072;2023-04-22T12:10:57;25.80;87.90
11748;DHT22;5931;48.832;9.072;2023-04-22T12:13:32;25.60;91.10
11748;DHT22;5931;48.832;9.072;2023-04-22T12:16:00;25.80;91.00
11748;DHT22;5931;48.832;9.072;2023-04-22T12:18:38;25.80;91.20
11748;DHT22;5931;48.832;9.072;2023-04-22T12:21:11;25.90;91.10
11748;DHT22;5931;48.832;9.072;2023-04-22T12:23:41;25.80;90.60
11748;DHT22;5931;48.832;9.072;2023-04-22T12:26:08;25.60;90.90
11748;DHT22;5931;48.832;9.072;2023-04-22T12:28:35;25.60;91.40
11748;DHT22;5931;48.832;9.072;2023-04-22T12:31:01;25.70;90.60
11748;DHT22;5931;48.832;9.072;2023-04-22T12:33:26;25.70;91.70
11748;DHT22;5931;48.832;9.072;2023-04-22T12:35:52;25.60;91.70
11748;DHT22;5931;48.832;9.072;2023-04-22T12:38:18;25.50;91.10
11748;DHT22;5931;48.832;9.072;2023-04-22T12:40:44;25.50;90.50
11748;DHT22;5931;48.832;9.072;2023-04-22T12:43:10;25.60;88.40
11748;DHT22;5931;48.832;9.072;2023-04-22T12:45:36;25.40;88.10
11748;DHT22;5931;48.832;9.072;2023-04-22T12:48:04;25.30;90.00
11748;DHT22;5931;48.832;9.072;2023-04-22T12:50:30;25.10;84.80
11748;DHT22;5931;48.832;9.072;2023-04-22T12:52:55;24.80;86.00
11748;DHT22;5931;48.832;9.072;2023-04-22T12:55:21;24.60;86.30
11748;DHT22;5931;48.832;9.072;2023-04-22T12:57:48;24.50;86.40
11748;DHT22;5931;48.832;9.072;2023-04-22T13:00:14;24.40;87.70
11748;DHT22;5931;48.832;9.072;2023-04-22T13:02:42;24.30;85.70
11748;DHT22;5931;48.832;9.072;2023-04-22T13:05:08;24.30;86.80
11748;DHT22;5931;48.832;9.072;2023-04-22T13:07:35;24.00;86.20
11748;DHT22;5931;48.832;9.072;2023-04-22T13:10:00;24.00;88.60
11748;DHT22;5931;48.832;9.072;2023-04-22T13:12:26;24.10;88.00
11748;DHT22;5931;48.832;9.072;2023-04-22T13:14:52;24.30;89.90
11748;DHT22;5931;48.832;9.072;2023-04-22T13:17:17;24.20;90.90
11748;DHT22;5931;48.832;9.072;2023-04-22T13:19:43;24.20;93.30
11748;DHT22;5931;48.832;9.072;2023-04-22T13:22:09;24.10;94.20
11748;DHT22;5931;48.832;9.072;2023-04-22T13:24:35;23.70;94.70
11748;DHT22;5931;48.832;9.072;2023-04-22T13:27:01;23.50;93.60
11748;DHT22;5931;48.832;9.072;2023-04-22T13:29:27;23.30;93.90
11748;DHT22;5931;48.832;9.072;2023-04-22T13:31:53;23.30;94.60
11748;DHT22;5931;48.832;9.072;2023-04-22T13:34:18;23.80;94.40
11748;DHT22;5931;48.832;9.072;2023-04-22T13:36:44;23.40;93.90
11748;DHT22;5931;48.832;9.072;2023-04-22T13:39:10;23.10;93.90
11748;DHT22;5931;48.832;9.072;2023-04-22T13:41:36;22.70;94.20
11748;DHT22;5931;48.832;9.072;2023-04-22T13:44:01;22.80;94.50
11748;DHT22;5931;48.832;9.072;2023-04-22T13:46:29;23.10;94.00
11748;DHT22;5931;48.832;9.072;2023-04-22T13:48:55;23.00;93.30
11748;DHT22;5931;48.832;9.072;2023-04-22T13:51:21;23.20;92.80
11748;DHT22;5931;48.832;9.072;2023-04-22T13:53:47;23.40;93.00
11748;DHT22;5931;48.832;9.072;2023-04-22T13:56:13;23.40;93.50
11748;DHT22;5931;48.832;9.072;2023-04-22T13:58:39;23.40;93.40
11748;DHT22;5931;48.832;9.072;2023-04-22T14:01:08;23.70;94.20
11748;DHT22;5931;48.832;9.072;2023-04-22T14:03:35;23.60;92.70
11748;DHT22;5931;48.832;9.072;2023-04-22T14:06:01;23.60;92.50
11748;DHT22;5931;48.832;9.072;2023-04-22T14:08:28;23.40;90.60
11748;DHT22;5931;48.832;9.072;2023-04-22T14:10:54;23.60;91.60
11748;DHT22;5931;48.832;9.072;2023-04-22T14:13:19;23.40;90.50
11748;DHT22;5931;48.832;9.072;2023-04-22T14:15:46;23.30;91.90
11748;DHT22;5931;48.832;9.072;2023-04-22T14:18:12;23.20;92.10
11748;DHT22;5931;48.832;9.072;2023-04-22T14:20:37;22.90;91.40
11748;DHT22;5931;48.832;9.072;2023-04-22T14:23:03;22.90;91.20
11748;DHT22;5931;48.832;9.072;2023-04-22T14:25:30;22.90;91.90
11748;DHT22;5931;48.832;9.072;2023-04-22T14:27:56;23.00;93.10
11748;DHT22;5931;48.832;9.072;2023-04-22T14:30:21;23.10;92.30
11748;DHT22;5931;48.832;9.072;2023-04-22T14:32:48;23.30;92.10
11748;DHT22;5931;48.832;9.072;2023-04-22T14:35:14;23.60;92.50
11748;DHT22;5931;48.832;9.072;2023-04-22T14:37:40;23.70;92.20
11748;DHT22;5931;48.832;9.072;2023-04-22T14:40:08;23.80;92.00
11748;DHT22;5931;48.832;9.072;2023-04-22T14:42:34;24.00;91.90
11748;DHT22;5931;48.832;9.072;2023-04-22T14:45:00;24.50;91.20
11748;DHT22;5931;48.832;9.072;2023-04-22T14:47:26;24.80;91.20
11748;DHT22;5931;48.832;9.072;2023-04-22T14:49:51;24.60;91.20
11748;DHT22;5931;48.832;9.072;2023-04-22T14:52:17;24.50;91.90
11748;DHT22;5931;48.832;9.072;2023-04-22T14:54:43;24.10;92.30
11748;DHT22;5931;48.832;9.072;2023-04-22T14:57:08;23.80;92.10
11748;DHT22;5931;48.832;9.072;2023-04-22T14:59:34;23.50;92.00
11748;DHT22;5931;48.832;9.072;2023-04-22T15:02:00;22.90;91.80
11748;DHT22;5931;48.832;9.072;2023-04-22T15:04:25;22.60;91.40
11748;DHT22;5931;48.832;9.072;2023-04-22T15:06:51;22.20;92.40
11748;DHT22;5931;48.832;9.072;2023-04-22T15:09:24;21.70;92.80
11748;DHT22;5931;48.832;9.072;2023-04-22T15:11:52;21.60;92.90
11748;DHT22;5931;48.832;9.072;2023-04-22T15:14:19;21.50;92.90
11748;DHT22;5931;48.832;9.072;2023-04-22T15:16:44;21.30;93.80
11748;DHT22;5931;48.832;9.072;2023-04-22T15:19:10;21.20;93.40
11748;DHT22;5931;48.832;9.072;2023-04-22T15:21:36;21.20;93.30
11748;DHT22;5931;48.832;9.072;2023-04-22T15:24:01;21.00;94.20
11748;DHT22;5931;48.832;9.072;2023-04-22T15:26:27;21.00;94.10
11748;DHT22;5931;48.832;9.072;2023-04-22T15:28:53;21.00;93.80
11748;DHT22;5931;48.832;9.072;2023-04-22T15:31:19;21.00;94.70
11748;DHT22;5931;48.832;9.072;2023-04-22T15:33:45;20.90;95.00
11748;DHT22;5931;48.832;9.072;2023-04-22T15:36:11;20.80;94.80
11748;DHT22;5931;48.832;9.072;2023-04-22T15:38:36;20.70;94.70
11748;DHT22;5931;48.832;9.072;2023-04-22T15:41:03;20.50;95.00
11748;DHT22;5931;48.832;9.072;2023-04-22T15:43:29;20.50;95.30
11748;DHT22;5931;48.832;9.072;2023-04-22T15:45:58;20.40;94.90
11748;DHT22;5931;48.832;9.072;2023-04-22T15:48:24;20.30;95.30
11748;DHT22;5931;48.832;9.072;2023-04-22T15:50:49;20.30;95.60
11748;DHT22;5931;48.832;9.072;2023-04-22T15:53:15;20.20;95.40
11748;DHT22;5931;48.832;9.072;2023-04-22T15:55:41;20.20;95.60
11748;DHT22;5931;48.832;9.072;2023-04-22T15:58:06;20.30;95.40
11748;DHT22;5931;48.832;9.072;2023-04-22T16:00:32;20.30;95.30
11748;DHT22;5931;48.832;9.072;2023-04-22T16:02:58;20.30;96.00
11748;DHT22;5931;48.832;9.072;2023-04-22T16:05:24;20.30;95.50
11748;DHT22;5931;48.832;9.072;2023-04-22T16:07:50;20.20;96.20
11748;DHT22;5931;48.832;9.072;2023-04-22T16:10:16;20.20;95.80
11748;DHT22;5931;48.832;9.072;2023-04-22T16:12:42;20.20;96.50